createdAt,value
2022-11-07T00:01:41.427Z,49.63
2022-11-07T00:04:08.498Z,48.03
2022-11-07T00:06:37.007Z,41.03
2022-11-07T00:09:04.753Z,49.78
2022-11-07T00:11:32.180Z,44.38
2022-11-07T00:13:59.246Z,51.42
2022-11-07T00:16:28.238Z,46.30
2022-11-07T00:18:55.468Z,42.00
2022-11-07T00:21:22.688Z,57.80
2022-11-07T00:23:49.803Z,51.95
2022-11-07T00:26:17.013Z,47.88
2022-11-07T00:28:44.533Z,49.42
2022-11-07T00:31:13.882Z,52.22
2022-11-07T00:33:43.054Z,43.03
2022-11-07T00:36:23.266Z,47.67
2022-11-07T00:38:51.088Z,51.50
2022-11-07T00:41:18.888Z,51.70
2022-11-07T00:43:46.211Z,54.92
2022-11-07T00:46:16.016Z,49.45
2022-11-07T00:48:43.611Z,49.83
2022-11-07T00:51:18.009Z,56.28
2022-11-07T00:53:45.716Z,57.78
2022-11-07T00:56:16.389Z,56.40
2022-11-07T00:58:44.065Z,66.15
2022-11-07T01:01:16.782Z,63.72
2022-11-07T01:04:02.648Z,52.80
2022-11-07T01:06:33.370Z,56.70
2022-11-07T01:09:00.680Z,59.10
2022-11-07T01:11:29.201Z,60.42
2022-11-07T01:14:00.759Z,55.35
2022-11-07T01:16:30.846Z,60.15
2022-11-07T01:18:57.907Z,54.20
2022-11-07T01:21:24.986Z,57.65
2022-11-07T01:23:52.056Z,64.82
2022-11-07T01:26:19.410Z,60.45
2022-11-07T01:28:46.619Z,56.20
2022-11-07T01:31:16.168Z,55.83
2022-11-07T01:33:43.866Z,53.58
2022-11-07T01:36:15.967Z,58.45
2022-11-07T01:38:47.870Z,59.17
2022-11-07T01:41:31.352Z,64.43
2022-11-07T01:44:06.212Z,54.22
2022-11-07T01:46:39.663Z,55.47
2022-11-07T01:49:11.169Z,56.78
2022-11-07T01:51:43.989Z,57.38
2022-11-07T01:54:12.988Z,57.85
2022-11-07T01:56:42.916Z,59.03
2022-11-07T01:59:15.888Z,65.68
2022-11-07T02:01:43.422Z,61.90
2022-11-07T02:04:11.437Z,55.20
2022-11-07T02:06:53.792Z,52.13
2022-11-07T02:09:21.364Z,58.63
2022-11-07T02:11:48.582Z,60.67
2022-11-07T02:14:17.458Z,52.80
2022-11-07T02:16:45.738Z,54.85
2022-11-07T02:19:47.828Z,53.80
2022-11-07T02:22:25.262Z,64.60
2022-11-07T02:24:57.955Z,54.90
2022-11-07T02:27:28.494Z,53.25
2022-11-07T02:30:03.587Z,58.88
2022-11-07T02:32:31.494Z,60.90
2022-11-07T02:35:06.909Z,58.85
2022-11-07T02:37:37.853Z,55.08
2022-11-07T02:40:09.007Z,52.53
2022-11-07T02:42:44.239Z,59.72
2022-11-07T02:45:18.203Z,58.72
2022-11-07T02:47:45.520Z,56.60
2022-11-07T02:50:15.488Z,51.55
2022-11-07T02:52:43.463Z,64.10
2022-11-07T02:55:12.657Z,61.83
2022-11-07T02:57:40.031Z,59.30
2022-11-07T03:00:09.510Z,62.65
2022-11-07T03:02:36.807Z,57.80
2022-11-07T03:05:04.867Z,59.45
2022-11-07T03:07:32.071Z,65.60
2022-11-07T03:09:59.124Z,61.92
2022-11-07T03:12:26.468Z,61.65
2022-11-07T03:14:53.614Z,58.53
2022-11-07T03:17:20.738Z,60.20
2022-11-07T03:19:47.862Z,59.55
2022-11-07T03:22:15.099Z,55.65
2022-11-07T03:24:42.231Z,50.30
2022-11-07T03:27:09.335Z,55.28
2022-11-07T03:29:36.372Z,62.28
2022-11-07T03:32:03.814Z,58.30
2022-11-07T03:34:30.908Z,49.30
2022-11-07T03:36:58.128Z,53.83
2022-11-07T03:39:26.069Z,58.55
2022-11-07T03:41:53.403Z,53.53
2022-11-07T03:44:20.669Z,53.15
2022-11-07T03:46:47.856Z,51.95
2022-11-07T03:49:14.946Z,57.85
2022-11-07T03:51:42.044Z,61.50
2022-11-07T03:54:09.799Z,55.13
2022-11-07T03:56:36.995Z,42.00
2022-11-07T03:59:04.098Z,42.70
2022-11-07T04:01:31.229Z,37.03
2022-11-07T04:03:58.401Z,42.05
2022-11-07T04:06:25.495Z,45.30
2022-11-07T04:08:52.658Z,48.47
2022-11-07T04:11:38.524Z,43.30
2022-11-07T04:14:24.595Z,36.55
2022-11-07T04:17:10.520Z,24.38
2022-11-07T04:19:37.613Z,32.53
2022-11-07T04:22:04.705Z,24.40
2022-11-07T04:24:31.784Z,32.08
2022-11-07T04:27:17.814Z,29.52
2022-11-07T04:29:44.935Z,22.15
2022-11-07T04:32:12.036Z,26.15
2022-11-07T04:34:39.303Z,25.17
2022-11-07T04:37:06.547Z,32.40
2022-11-07T04:39:33.730Z,39.50
2022-11-07T04:42:00.818Z,23.45
2022-11-07T04:44:27.948Z,30.00
2022-11-07T04:46:55.102Z,27.52
2022-11-07T04:49:22.280Z,30.85
2022-11-07T04:51:49.338Z,20.48
2022-11-07T04:54:16.892Z,21.25
2022-11-07T04:56:44.048Z,36.83
2022-11-07T04:59:11.111Z,39.60
2022-11-07T05:01:38.230Z,27.20
2022-11-07T05:04:05.397Z,31.67
2022-11-07T05:06:37.113Z,30.35
2022-11-07T05:09:04.469Z,30.00
2022-11-07T05:11:31.718Z,39.05
2022-11-07T05:13:58.801Z,33.40
2022-11-07T05:16:34.028Z,29.20
2022-11-07T05:19:01.289Z,35.75
2022-11-07T05:21:28.402Z,42.72
2022-11-07T05:23:55.553Z,51.40
2022-11-07T05:26:22.747Z,38.70
2022-11-07T05:28:49.959Z,37.13
2022-11-07T05:31:18.032Z,53.67
2022-11-07T05:33:45.291Z,36.53
2022-11-07T05:36:22.110Z,41.10
2022-11-07T05:38:52.839Z,46.95
2022-11-07T05:41:21.587Z,37.22
2022-11-07T05:43:48.978Z,38.67
2022-11-07T05:46:16.175Z,45.55
2022-11-07T05:48:43.239Z,44.42
2022-11-07T05:51:10.301Z,49.85
2022-11-07T05:53:37.490Z,42.53
2022-11-07T05:56:04.934Z,42.38
2022-11-07T05:58:32.063Z,44.20
2022-11-07T06:01:04.885Z,33.22
2022-11-07T06:03:33.059Z,38.72
2022-11-07T06:06:00.164Z,25.92
2022-11-07T06:08:27.336Z,18.98
2022-11-07T06:10:54.529Z,25.48
2022-11-07T06:13:21.989Z,18.05
2022-11-07T06:15:49.193Z,25.42
2022-11-07T06:18:19.763Z,20.05
2022-11-07T06:20:47.037Z,29.70
2022-11-07T06:23:15.485Z,26.13
2022-11-07T06:25:42.871Z,33.67
2022-11-07T06:28:12.291Z,22.42
2022-11-07T06:30:40.111Z,23.48
2022-11-07T06:33:13.300Z,28.38
2022-11-07T06:35:40.841Z,25.85
2022-11-07T06:38:10.524Z,25.88
2022-11-07T06:40:40.191Z,23.25
2022-11-07T06:43:16.855Z,30.90
2022-11-07T06:45:45.958Z,17.90
2022-11-07T06:48:13.366Z,27.52
2022-11-07T06:50:40.632Z,23.73
2022-11-07T06:53:11.888Z,20.38
2022-11-07T06:55:40.004Z,21.77
2022-11-07T06:58:07.164Z,21.38
2022-11-07T07:00:35.708Z,26.77
2022-11-07T07:03:03.747Z,29.40
2022-11-07T07:05:35.002Z,17.67
2022-11-07T07:08:03.783Z,14.32
2022-11-07T07:10:34.280Z,21.58
2022-11-07T07:13:01.672Z,12.80
2022-11-07T07:15:28.823Z,20.38
2022-11-07T07:18:00.223Z,24.52
2022-11-07T07:20:27.971Z,21.05
2022-11-07T07:23:00.185Z,18.73
2022-11-07T07:25:30.080Z,18.60
2022-11-07T07:27:57.160Z,20.35
2022-11-07T07:30:24.254Z,18.70
2022-11-07T07:32:51.477Z,21.48
2022-11-07T07:35:18.606Z,15.43
2022-11-07T07:37:51.224Z,15.32
2022-11-07T07:40:20.073Z,22.45
2022-11-07T07:42:47.544Z,25.58
2022-11-07T07:45:16.745Z,18.48
2022-11-07T07:50:12.862Z,13.23
2022-11-07T07:52:40.313Z,19.88
2022-11-07T07:55:09.481Z,14.85
2022-11-07T07:57:43.911Z,18.63
2022-11-07T08:00:12.051Z,20.95
2022-11-07T08:02:42.812Z,14.90
2022-11-07T08:05:14.496Z,21.27
2022-11-07T08:07:49.437Z,15.48
2022-11-07T08:13:05.551Z,16.98
2022-11-07T08:15:32.744Z,18.88
2022-11-07T08:18:06.183Z,25.20
2022-11-07T08:20:33.331Z,22.90
2022-11-07T08:23:12.975Z,16.25
2022-11-07T08:25:54.682Z,23.85
2022-11-07T08:28:27.714Z,19.73
2022-11-07T08:30:59.815Z,17.38
2022-11-07T08:33:27.859Z,15.85
2022-11-07T08:35:59.766Z,27.92
2022-11-07T08:38:29.447Z,16.23
2022-11-07T08:40:57.230Z,17.08
2022-11-07T08:43:25.150Z,29.23
2022-11-07T08:45:54.290Z,16.98
2022-11-07T08:48:21.962Z,26.00
2022-11-07T08:50:57.594Z,21.63
2022-11-07T08:53:26.512Z,16.42
2022-11-07T08:56:04.861Z,20.50
2022-11-07T08:58:32.602Z,21.13
2022-11-07T09:00:59.880Z,16.73
2022-11-07T09:06:14.380Z,28.83
2022-11-07T09:08:41.498Z,14.70
2022-11-07T09:11:09.011Z,15.18
2022-11-07T09:13:36.959Z,16.25
2022-11-07T09:16:05.340Z,14.68
2022-11-07T09:18:33.148Z,21.33
2022-11-07T09:21:00.273Z,17.10
2022-11-07T09:23:27.797Z,23.33
2022-11-07T09:25:57.625Z,13.25
2022-11-07T09:28:24.803Z,13.57
2022-11-07T09:30:58.728Z,24.67
2022-11-07T09:33:26.523Z,17.85
2022-11-07T09:35:54.115Z,20.65
2022-11-07T09:38:21.228Z,17.58
2022-11-07T09:41:28.146Z,19.02
2022-11-07T09:44:25.413Z,16.77
2022-11-07T09:47:37.904Z,16.75
2022-11-07T09:50:22.793Z,15.00
2022-11-07T09:53:18.795Z,18.25
2022-11-07T09:56:10.000Z,25.00
2022-11-07T09:58:46.235Z,17.63
2022-11-07T10:01:19.807Z,14.45
2022-11-07T10:07:02.778Z,17.73
2022-11-07T10:09:50.179Z,13.57
2022-11-07T10:12:35.110Z,18.67
2022-11-07T10:15:24.435Z,16.60
2022-11-07T10:18:42.135Z,17.02
2022-11-07T10:21:37.735Z,19.90
2022-11-07T10:24:42.507Z,19.52
2022-11-07T10:27:14.209Z,15.35
2022-11-07T10:29:47.423Z,18.83
2022-11-07T10:32:47.436Z,15.60
2022-11-07T10:35:32.466Z,19.17
2022-11-07T10:38:14.058Z,16.20
2022-11-07T10:40:41.902Z,13.25
2022-11-07T10:43:21.898Z,15.52
2022-11-07T10:45:49.993Z,14.57
2022-11-07T10:48:17.839Z,14.52
2022-11-07T10:50:53.492Z,20.20
2022-11-07T10:53:23.408Z,15.98
2022-11-07T10:55:52.947Z,25.27
2022-11-07T10:58:42.270Z,19.85
2022-11-07T11:01:10.990Z,17.20
2022-11-07T11:03:45.879Z,25.15
2022-11-07T11:06:30.473Z,15.95
2022-11-07T11:08:58.913Z,17.98
2022-11-07T11:11:32.239Z,15.55
2022-11-07T11:14:06.487Z,12.45
2022-11-07T11:16:37.263Z,14.70
2022-11-07T11:19:05.875Z,19.83
2022-11-07T11:21:45.861Z,14.68
2022-11-07T11:24:36.831Z,9.85
2022-11-07T11:27:21.283Z,12.70
2022-11-07T11:29:59.589Z,15.05
2022-11-07T11:32:49.189Z,15.50
2022-11-07T11:35:44.548Z,13.57
2022-11-07T11:38:24.440Z,17.50
2022-11-07T11:41:12.160Z,15.63
2022-11-07T11:43:53.826Z,20.55
2022-11-07T11:46:34.672Z,21.77
2022-11-07T11:49:14.863Z,14.93
2022-11-07T11:52:02.744Z,21.55
2022-11-07T11:54:29.892Z,19.33
2022-11-07T11:57:08.307Z,18.15
2022-11-07T12:00:16.023Z,16.10
2022-11-07T12:03:18.643Z,17.15
2022-11-07T12:06:15.195Z,13.65
2022-11-07T12:08:51.866Z,22.23
2022-11-07T12:12:02.200Z,15.88
2022-11-07T12:14:36.508Z,19.92
2022-11-07T12:17:52.477Z,17.15
2022-11-07T12:21:03.337Z,13.77
2022-11-07T12:24:07.729Z,12.90
2022-11-07T12:27:20.307Z,14.40
2022-11-07T12:30:11.313Z,13.60
2022-11-07T12:33:00.073Z,23.00
2022-11-07T12:35:47.603Z,14.43
2022-11-07T12:39:03.675Z,16.17
2022-11-07T12:41:49.046Z,14.82
2022-11-07T12:44:24.933Z,18.25
2022-11-07T12:46:57.365Z,13.75
2022-11-07T12:49:56.331Z,15.15
2022-11-07T12:53:26.183Z,15.80
2022-11-07T12:56:12.567Z,15.68
2022-11-07T12:58:42.772Z,11.75
2022-11-07T13:01:14.776Z,13.95
2022-11-07T13:04:11.277Z,20.50
2022-11-07T13:06:59.709Z,11.07
2022-11-07T13:09:35.183Z,22.50
2022-11-07T13:12:24.622Z,19.48
2022-11-07T13:14:52.498Z,10.75
2022-11-07T13:17:27.112Z,16.85
2022-11-07T13:20:29.656Z,14.80
2022-11-07T13:23:01.412Z,14.07
2022-11-07T13:25:34.068Z,15.27
2022-11-07T13:28:22.736Z,16.80
2022-11-07T13:30:56.279Z,12.60
2022-11-07T13:33:34.794Z,14.75
2022-11-07T13:36:14.847Z,26.27
2022-11-07T13:38:50.076Z,17.45
2022-11-07T13:41:18.252Z,17.20
2022-11-07T13:44:36.621Z,11.88
2022-11-07T13:47:12.933Z,15.73
2022-11-07T13:49:46.404Z,20.23
2022-11-07T13:52:41.492Z,14.68
2022-11-07T13:55:16.997Z,15.85
2022-11-07T13:58:06.295Z,20.25
2022-11-07T14:00:34.139Z,17.35
2022-11-07T14:03:01.519Z,22.95
2022-11-07T14:05:35.693Z,16.92
2022-11-07T14:08:07.611Z,18.38
2022-11-07T14:10:47.275Z,15.25
2022-11-07T14:13:30.102Z,18.98
2022-11-07T14:16:05.641Z,17.08
2022-11-07T14:18:42.426Z,16.65
2022-11-07T14:21:45.428Z,15.32
2022-11-07T14:24:33.395Z,19.15
2022-11-07T14:27:12.201Z,17.05
2022-11-07T14:29:53.183Z,12.45
2022-11-07T14:32:20.442Z,16.13
2022-11-07T14:34:51.375Z,25.13
2022-11-07T14:37:22.688Z,11.85
2022-11-07T14:39:51.209Z,13.95
2022-11-07T14:42:25.236Z,27.65
2022-11-07T14:44:57.036Z,17.42
2022-11-07T14:47:31.242Z,20.45
2022-11-07T14:50:01.211Z,19.73
2022-11-07T14:52:52.742Z,23.42
2022-11-07T14:55:52.683Z,14.30
2022-11-07T14:58:23.921Z,16.58
2022-11-07T15:00:55.298Z,14.10
2022-11-07T15:03:31.030Z,23.23
2022-11-07T15:05:58.376Z,18.65
2022-11-07T15:08:29.697Z,20.58
2022-11-07T15:11:30.249Z,18.27
2022-11-07T15:13:59.515Z,15.30
2022-11-07T15:19:06.693Z,15.52
2022-11-07T15:21:50.408Z,22.08
2022-11-07T15:24:44.350Z,18.75
2022-11-07T15:27:43.555Z,18.40
2022-11-07T15:30:31.945Z,34.08
2022-11-07T15:32:59.863Z,27.95
2022-11-07T15:35:43.368Z,24.85
2022-11-07T15:38:21.252Z,22.42
2022-11-07T15:40:49.172Z,21.75
2022-11-07T15:43:16.699Z,17.13
2022-11-07T15:45:44.993Z,18.63
2022-11-07T15:48:18.532Z,22.10
2022-11-07T15:50:48.191Z,24.60
2022-11-07T15:55:57.366Z,17.85
2022-11-07T15:58:27.755Z,19.25
2022-11-07T16:00:56.562Z,18.60
2022-11-07T16:03:25.495Z,20.00
2022-11-07T16:05:57.358Z,16.27
2022-11-07T16:08:24.931Z,18.77
2022-11-07T16:11:00.369Z,15.88
2022-11-07T16:13:28.395Z,21.98
2022-11-07T16:16:01.352Z,25.42
2022-11-07T16:18:37.692Z,24.13
2022-11-07T16:21:05.210Z,16.70
2022-11-07T16:23:32.332Z,16.52
2022-11-07T16:25:59.816Z,18.73
2022-11-07T16:28:34.769Z,17.25
2022-11-07T16:31:02.847Z,24.27
2022-11-07T16:33:30.562Z,16.77
2022-11-07T16:36:10.985Z,18.83
2022-11-07T16:38:38.136Z,18.55
2022-11-07T16:41:05.460Z,17.92
2022-11-07T16:43:34.383Z,17.73
2022-11-07T16:46:01.671Z,20.92
2022-11-07T16:48:31.231Z,21.90
2022-11-07T16:50:58.356Z,13.45
2022-11-07T16:53:25.475Z,17.58
2022-11-07T16:56:00.787Z,15.10
2022-11-07T16:58:32.026Z,14.60
2022-11-07T17:01:05.880Z,27.13
2022-11-07T17:03:33.516Z,16.92
2022-11-07T17:06:02.994Z,17.10
2022-11-07T17:08:40.515Z,19.02
2022-11-07T17:11:07.683Z,33.88
2022-11-07T17:13:34.969Z,19.73
2022-11-07T17:16:02.165Z,15.95
2022-11-07T17:18:29.295Z,15.05
2022-11-07T17:20:56.531Z,15.00
2022-11-07T17:23:29.518Z,15.27
2022-11-07T17:25:59.554Z,17.52
2022-11-07T17:28:26.734Z,15.52
2022-11-07T17:30:53.867Z,16.45
2022-11-07T17:33:21.126Z,19.55
2022-11-07T17:35:52.495Z,15.30
2022-11-07T17:38:19.900Z,15.73
2022-11-07T17:40:47.150Z,13.95
2022-11-07T17:43:14.217Z,18.15
2022-11-07T17:45:41.458Z,16.42
2022-11-07T17:48:10.179Z,22.42
2022-11-07T17:50:37.675Z,25.67
2022-11-07T17:53:04.859Z,24.13
2022-11-07T17:55:32.000Z,24.88
2022-11-07T17:57:59.205Z,25.30
2022-11-07T18:00:27.167Z,28.92
2022-11-07T18:02:54.429Z,30.23
2022-11-07T18:05:22.767Z,42.92
2022-11-07T18:07:49.907Z,55.30
2022-11-07T18:10:17.402Z,35.30
2022-11-07T18:12:44.717Z,48.25
2022-11-07T18:15:12.078Z,50.33
2022-11-07T18:17:40.692Z,66.68
2022-11-07T18:20:09.723Z,52.10
2022-11-07T18:22:37.016Z,47.92
2022-11-07T18:25:08.314Z,55.40
2022-11-07T18:27:35.821Z,42.72
2022-11-07T18:30:04.903Z,41.50
2022-11-07T18:32:36.144Z,66.82
2022-11-07T18:35:06.860Z,91.15
2022-11-07T18:37:34.106Z,79.15
2022-11-07T18:40:01.581Z,64.78
2022-11-07T18:42:28.815Z,74.68
2022-11-07T18:44:56.015Z,92.18
2022-11-07T18:47:23.226Z,101.13
2022-11-07T18:49:55.566Z,64.78
2022-11-07T18:52:24.042Z,77.72
2022-11-07T18:54:51.567Z,65.93
2022-11-07T18:57:18.768Z,73.93
2022-11-07T18:59:46.038Z,75.43
2022-11-07T19:02:13.694Z,86.45
2022-11-07T19:04:43.311Z,88.75
2022-11-07T19:07:10.539Z,71.78
2022-11-07T19:09:37.844Z,55.13
2022-11-07T19:12:05.296Z,63.70
2022-11-07T19:14:32.670Z,68.32
2022-11-07T19:16:59.824Z,68.38
2022-11-07T19:19:27.018Z,34.97
2022-11-07T19:21:54.323Z,61.97
2022-11-07T19:24:21.675Z,50.38
2022-11-07T19:26:49.616Z,56.72
2022-11-07T19:29:16.947Z,62.30
2022-11-07T19:31:44.236Z,62.17
2022-11-07T19:34:11.408Z,49.80
2022-11-07T19:36:38.560Z,63.00
2022-11-07T19:39:05.804Z,58.60
2022-11-07T19:41:33.299Z,54.35
2022-11-07T19:44:03.658Z,56.90
2022-11-07T19:46:30.932Z,59.55
2022-11-07T19:48:58.056Z,47.50
2022-11-07T19:51:25.210Z,37.55
2022-11-07T19:53:58.856Z,39.70
2022-11-07T19:56:31.873Z,36.53
2022-11-07T19:59:00.785Z,42.25
2022-11-07T20:01:31.358Z,27.15
2022-11-07T20:03:59.905Z,38.50
2022-11-07T20:06:34.837Z,31.15
2022-11-07T20:09:05.613Z,39.05
2022-11-07T20:11:32.901Z,43.45
2022-11-07T20:14:03.620Z,32.83
2022-11-07T20:16:33.456Z,38.95
2022-11-07T20:21:29.641Z,32.03
2022-11-07T20:23:59.047Z,25.98
2022-11-07T20:28:55.253Z,32.92
2022-11-07T20:31:36.136Z,23.85
2022-11-07T20:34:07.008Z,38.42
2022-11-07T20:36:34.757Z,29.60
2022-11-07T20:39:03.208Z,31.65
2022-11-07T20:41:30.416Z,36.83
2022-11-07T20:44:04.057Z,25.23
2022-11-07T20:46:34.665Z,30.48
2022-11-07T20:49:05.063Z,28.77
2022-11-07T20:51:32.271Z,25.95
2022-11-07T20:53:59.518Z,34.25
2022-11-07T20:56:28.155Z,29.98
2022-11-07T20:58:57.393Z,24.20
2022-11-07T21:01:35.234Z,22.73
2022-11-07T21:04:13.387Z,35.78
2022-11-07T21:06:40.899Z,27.52
2022-11-07T21:09:08.563Z,31.25
2022-11-07T21:11:35.994Z,29.20
2022-11-07T21:14:03.914Z,24.60
2022-11-07T21:16:33.887Z,28.58
2022-11-07T21:19:01.735Z,27.30
2022-11-07T21:21:30.946Z,39.05
2022-11-07T21:23:59.236Z,34.50
2022-11-07T21:26:33.422Z,36.45
2022-11-07T21:29:05.939Z,28.83
2022-11-07T21:31:35.222Z,32.67
2022-11-07T21:34:02.992Z,32.90
2022-11-07T21:36:31.255Z,36.20
2022-11-07T21:39:00.402Z,38.85
2022-11-07T21:41:28.974Z,46.38
2022-11-07T21:43:58.415Z,53.03
2022-11-07T21:48:58.469Z,39.90
2022-11-07T21:51:29.661Z,44.53
2022-11-07T21:53:58.724Z,40.97
2022-11-07T21:56:29.332Z,54.75
2022-11-07T21:58:59.432Z,54.22
2022-11-07T22:01:27.849Z,88.07
2022-11-07T22:04:12.210Z,48.87
2022-11-07T22:06:43.969Z,40.63
2022-11-07T22:09:15.629Z,41.05
2022-11-07T22:11:43.414Z,47.78
2022-11-07T22:14:16.542Z,48.13
2022-11-07T22:16:44.738Z,42.13
2022-11-07T22:19:13.058Z,62.83
2022-11-07T22:21:41.152Z,70.10
2022-11-07T22:24:09.827Z,48.08
2022-11-07T22:26:37.150Z,62.50
2022-11-07T22:29:04.691Z,47.83
2022-11-07T22:31:32.457Z,43.33
2022-11-07T22:34:00.684Z,39.80
2022-11-07T22:36:28.851Z,39.67
2022-11-07T22:38:57.310Z,37.88
2022-11-07T22:41:26.456Z,40.35
2022-11-07T22:43:54.303Z,33.72
2022-11-07T22:46:25.889Z,32.25
2022-11-07T22:48:54.433Z,27.42
2022-11-07T22:51:31.776Z,25.10
2022-11-07T22:54:10.319Z,32.75
2022-11-07T22:56:37.358Z,27.33
2022-11-07T22:59:05.554Z,26.98
2022-11-07T23:01:39.186Z,28.92
2022-11-07T23:04:07.941Z,21.77
2022-11-07T23:06:35.278Z,25.85
2022-11-07T23:09:02.478Z,28.35
2022-11-07T23:11:49.354Z,28.13
2022-11-07T23:14:20.187Z,29.33
2022-11-07T23:16:54.654Z,24.23
2022-11-07T23:19:24.387Z,25.95
2022-11-07T23:21:54.166Z,31.52
2022-11-07T23:24:21.807Z,30.58
2022-11-07T23:26:49.609Z,31.55
2022-11-07T23:29:21.184Z,26.55
2022-11-07T23:31:50.390Z,25.35
2022-11-07T23:34:18.893Z,35.55
2022-11-07T23:36:48.773Z,44.13
2022-11-07T23:39:19.294Z,35.13
2022-11-07T23:41:46.611Z,47.15
2022-11-07T23:44:14.666Z,35.45
2022-11-07T23:47:01.044Z,48.72
2022-11-07T23:49:47.108Z,33.40
2022-11-07T23:52:14.502Z,27.60
2022-11-07T23:55:00.581Z,35.03
2022-11-07T23:57:27.862Z,33.00
